Decoded Metar for KGDP (GUADALUPE PASS in TX, USA) (IATA:GDP) | Meteo·Mobile Aviation Weather
aviador You're here:

KGDP Decoded Metar

GUADALUPE PASS in TX, USA
Report Time2018-10-23 00:51:00
UTC Time2018-10-23 01:47:40
Flight Rules vfr VFR
Wind210° at 08 kt
W.Rank210° ranks 11
Current wind is below 210° avg. (9.0)
Visibility9999 m
Phenomena:N/A
Clouds:Few 030 Hf
Overcast 037 Hf
Expected CloudBase > 2,400 ft AGL from Temp-Dew spread
Ceiling3,700 ft
Temp18°C (ISA +14)
Dew Point12°C (68% RH)
AAT15.7°C
QNH1022 hPa
Density Alt7,080 ft
Elevation5,551 ft
Report Wrong Elevation
Raw Report
KGDP 230051Z AUTO 21008KT 10SM FEW030 OVC037 18/12 A3018 RMK AO2
SLP173 T01780117 NN NO CARRIER RING CONNECT 1200 SJURR7JNR
ALL TTAA00 TJNR 230100 .A TJNR 1023 DH0100/PPH 0.01=

Extra information for KGDP:More info

Metar Taf Metar & Taf Last 4 Metars F.Rules Stats Wind Profile Meteogram Temp Stats Airport Information Weather charts Add Link Nearby VenuesMetar ALERT Operation Metar Decoded Social comments

AIRNAV info for KGDP